Time;durP1;ratioP1;P1;durP2;ratioP2;P2;SDS_P1;SDS_P2;PMS_P1;PMS_P2;Temp;Humidity;BMP_temperature;BMP_pressure;BME280_temperature;BME280_humidity;BME280_pressure;Samples;Min_cycle;Max_cycle;Signal;HPM_P1;HPM_P2
2024/03/27 00:00:29;;;;;;;;;14.50;13.00;;;;;-143.90;58.39;74508.63;4857920;28;102282;-73
2024/03/27 00:02:55;;;;;;;;;19.75;14.00;;;;;-143.90;57.87;74506.56;4851469;28;104721;-73
2024/03/27 00:05:20;;;;;;;;;12.00;10.50;;;;;-143.90;59.07;74510.72;4855700;28;102083;-73
2024/03/27 00:07:46;;;;;;;;;15.75;14.75;;;;;-143.90;57.04;74508.63;4867473;28;102974;-73
2024/03/27 00:10:13;;;;;;;;;14.50;13.00;;;;;-143.90;57.13;74490.03;4838604;28;102519;-72
2024/03/27 00:12:39;;;;;;;;;10.75;10.75;;;;;-143.90;57.53;74485.91;4854792;28;104632;-72
2024/03/27 00:15:05;;;;;;;;;12.50;11.75;;;;;-143.90;57.37;74477.63;4852741;28;102791;-73
2024/03/27 00:17:31;;;;;;;;;11.25;10.25;;;;;-143.90;57.06;74477.63;4838138;28;103508;-73
2024/03/27 00:19:57;;;;;;;;;12.00;10.00;;;;;-143.90;56.65;74473.50;4833842;28;102325;-73
2024/03/27 00:22:22;;;;;;;;;14.00;12.00;;;;;-143.90;56.80;74461.09;4821904;28;104539;-73
2024/03/27 00:24:48;;;;;;;;;13.00;11.50;;;;;-143.90;55.97;74454.91;4829392;28;107954;-73
2024/03/27 00:27:14;;;;;;;;;14.00;13.00;;;;;-143.90;56.55;74442.50;4828519;28;102483;-73
2024/03/27 00:29:39;;;;;;;;;13.00;12.00;;;;;-143.90;55.47;74442.50;4831013;28;102199;-72
2024/03/27 00:32:05;;;;;;;;;14.00;13.00;;;;;-143.90;55.17;74432.16;4825130;28;104504;-72
2024/03/27 00:34:32;;;;;;;;;12.00;12.00;;;;;-143.90;54.39;74423.88;4829899;28;102482;-74
2024/03/27 00:36:59;;;;;;;;;14.25;12.75;;;;;-143.90;54.96;74428.03;4836321;28;102526;-74
2024/03/27 00:39:25;;;;;;;;;15.50;15.00;;;;;-143.90;55.65;74425.97;4833372;28;102406;-74
2024/03/27 00:41:51;;;;;;;;;13.50;13.50;;;;;-143.90;55.79;74436.28;4830951;28;104613;-73
2024/03/27 00:44:17;;;;;;;;;13.75;13.00;;;;;-143.90;55.73;74436.28;4834706;28;102430;-73
2024/03/27 00:46:42;;;;;;;;;14.75;13.75;;;;;-143.90;55.07;74423.88;4833340;28;102413;-73
2024/03/27 00:49:08;;;;;;;;;14.00;11.25;;;;;-143.90;55.39;74413.56;4828829;28;102562;-72
2024/03/27 00:51:33;;;;;;;;;12.75;12.25;;;;;-143.90;54.49;74413.56;4828141;28;104479;-74
2024/03/27 00:53:59;;;;;;;;;13.00;12.25;;;;;-143.90;53.10;74394.94;4825926;28;104772;-74
2024/03/27 00:56:26;;;;;;;;;14.75;12.50;;;;;-143.90;52.58;74386.69;4817977;28;102367;-74
2024/03/27 00:58:52;;;;;;;;;13.25;10.50;;;;;-143.90;53.57;74380.47;4827526;28;102921;-74
2024/03/27 01:01:19;;;;;;;;;12.50;10.75;;;;;-143.90;53.26;74372.22;4829025;28;104872;-74
2024/03/27 01:03:44;;;;;;;;;8.25;7.00;;;;;-143.90;53.11;74361.88;4829217;28;102911;-74
2024/03/27 01:06:10;;;;;;;;;14.50;10.00;;;;;-143.90;52.36;74353.63;4826831;28;102522;-73
2024/03/27 01:08:35;;;;;;;;;7.75;7.75;;;;;-143.90;52.24;74353.63;4838623;28;102090;-74
2024/03/27 01:11:01;;;;;;;;;12.75;9.75;;;;;-143.90;52.09;74353.63;4834030;28;104437;-74
2024/03/27 01:13:27;;;;;;;;;8.50;7.75;;;;;-143.90;52.31;74349.47;4834728;28;102143;-74
2024/03/27 01:15:53;;;;;;;;;12.00;10.75;;;;;-143.90;52.70;74357.75;4831461;28;102387;-74
2024/03/27 01:18:19;;;;;;;;;9.00;8.00;;;;;-143.90;52.21;74353.63;4824689;28;102514;-74
2024/03/27 01:20:45;;;;;;;;;6.50;6.00;;;;;-143.90;53.08;74357.75;4838636;28;104575;-73
2024/03/27 01:23:11;;;;;;;;;7.25;7.25;;;;;-143.90;52.56;74349.47;4827124;28;102507;-72
2024/03/27 01:25:37;;;;;;;;;7.00;5.25;;;;;-143.90;52.14;74349.47;4830892;28;102280;-74
2024/03/27 01:28:04;;;;;;;;;7.25;7.00;;;;;-143.90;52.32;74347.41;4841350;28;102376;-73
2024/03/27 01:30:30;;;;;;;;;6.75;5.00;;;;;-143.90;51.92;74345.34;4823202;28;103465;-74
2024/03/27 01:32:57;;;;;;;;;10.50;9.00;;;;;-143.90;52.01;74353.63;4825879;28;102372;-75
2024/03/27 01:35:23;;;;;;;;;7.25;6.00;;;;;-143.90;52.14;74357.75;4848006;28;102116;-74
2024/03/27 01:37:48;;;;;;;;;8.25;7.00;;;;;-143.90;51.68;74353.63;4839335;28;104054;-74
2024/03/27 01:40:14;;;;;;;;;7.25;6.25;;;;;-143.90;52.19;74349.47;4824947;28;104476;-74
2024/03/27 01:42:40;;;;;;;;;3.75;3.75;;;;;-143.90;51.89;74353.63;4850478;28;102432;-72
2024/03/27 01:45:07;;;;;;;;;5.50;4.00;;;;;-143.90;51.26;74353.63;4835029;28;102608;-74
2024/03/27 01:47:32;;;;;;;;;6.50;4.00;;;;;-143.90;51.37;74347.41;4823617;28;102157;-74
2024/03/27 01:49:59;;;;;;;;;4.75;3.00;;;;;-143.90;51.02;74337.06;4827620;28;104639;-73
2024/03/27 01:52:26;;;;;;;;;4.00;3.00;;;;;-143.90;50.13;74332.94;4809480;28;102526;-74
2024/03/27 01:54:52;;;;;;;;;2.75;2.00;;;;;-143.90;50.18;74320.53;4824481;28;102202;-74
2024/03/27 01:57:19;;;;;;;;;2.00;2.00;;;;;-143.90;49.28;74312.28;4832811;28;104153;-74
2024/03/27 01:59:45;;;;;;;;;4.00;3.00;;;;;-143.90;48.64;74299.88;4839943;28;104590;-73
2024/03/27 02:02:11;;;;;;;;;8.00;6.25;;;;;-143.90;47.48;74287.47;4817861;28;102007;-73
2024/03/27 02:04:38;;;;;;;;;3.25;3.25;;;;;-143.90;48.61;74279.22;4814586;28;102209;-74
2024/03/27 02:07:03;;;;;;;;;5.00;4.50;;;;;-143.90;46.45;74260.59;4838353;28;102420;-74
2024/03/27 02:09:29;;;;;;;;;9.25;6.50;;;;;-143.90;48.52;74264.72;4829793;28;104591;-74
2024/03/27 02:11:55;;;;;;;;;7.00;7.00;;;;;-143.90;47.84;74279.22;4833865;28;102449;-73
2024/03/27 02:14:21;;;;;;;;;9.00;8.00;;;;;-143.90;49.33;74297.81;4816990;28;102860;-74
2024/03/27 02:16:46;;;;;;;;;7.00;7.00;;;;;-143.90;49.18;74312.28;4848484;28;102428;-73
2024/03/27 02:19:12;;;;;;;;;10.50;9.00;;;;;-143.90;49.31;74324.69;4854570;28;104389;-74
2024/03/27 02:21:38;;;;;;;;;9.00;7.50;;;;;-143.90;50.06;74341.22;4828180;28;102505;-73
2024/03/27 02:24:22;;;;;;;;;5.50;5.50;;;;;-143.90;50.43;74349.47;4820585;28;102638;-74
2024/03/27 02:26:48;;;;;;;;;9.50;8.25;;;;;-143.90;50.41;74357.75;4829121;28;102439;-73
2024/03/27 02:29:14;;;;;;;;;8.75;7.00;;;;;-143.90;50.61;74368.09;4829459;28;104473;-73
2024/03/27 02:31:40;;;;;;;;;9.50;7.75;;;;;-143.90;49.83;74361.88;4837350;28;104715;-74
2024/03/27 02:34:05;;;;;;;;;6.50;5.50;;;;;-143.90;50.18;74361.88;4820941;28;105067;-74
2024/03/27 02:36:31;;;;;;;;;4.00;4.00;;;;;-143.90;50.21;74357.75;4825367;28;102488;-73
2024/03/27 02:38:56;;;;;;;;;12.25;7.00;;;;;-143.90;49.77;74355.69;4824594;28;104911;-73
2024/03/27 02:41:22;;;;;;;;;2.25;2.00;;;;;-143.90;49.40;74353.63;4845579;28;102328;-73
2024/03/27 02:43:48;;;;;;;;;8.00;7.00;;;;;-143.90;49.51;74357.75;4830370;28;101977;-73
2024/03/27 02:46:13;;;;;;;;;7.25;7.25;;;;;-143.90;49.72;74355.69;4819246;28;102154;-73
2024/03/27 02:48:39;;;;;;;;;7.50;6.00;;;;;-143.90;50.13;74357.75;4842896;28;104525;-74
2024/03/27 02:51:05;;;;;;;;;8.50;7.50;;;;;-143.90;49.78;74347.41;4831212;28;103134;-73
2024/03/27 02:53:30;;;;;;;;;8.00;7.00;;;;;-143.90;48.71;74341.22;4833092;28;103456;-73
2024/03/27 02:55:56;;;;;;;;;8.50;7.00;;;;;-143.90;49.04;74341.22;4827759;28;102505;-74
2024/03/27 02:58:22;;;;;;;;;7.75;7.75;;;;;-143.90;48.45;74349.47;4819181;28;103537;-73
2024/03/27 03:00:49;;;;;;;;;8.00;6.75;;;;;-143.90;49.62;74353.63;4836055;28;103209;-73
2024/03/27 03:03:15;;;;;;;;;7.00;7.00;;;;;-143.90;49.23;74361.88;4829464;28;102069;-74
2024/03/27 03:05:42;;;;;;;;;7.25;6.25;;;;;-143.90;50.22;74361.88;4832220;28;102478;-74
2024/03/27 03:08:08;;;;;;;;;7.75;6.50;;;;;-143.90;49.75;74366.00;4826623;28;104717;-74
2024/03/27 03:10:33;;;;;;;;;8.00;6.50;;;;;-143.90;49.66;74359.81;4829093;28;102579;-74
2024/03/27 03:12:59;;;;;;;;;6.00;3.75;;;;;-143.90;50.18;74353.63;4831532;28;102494;-74
2024/03/27 03:15:25;;;;;;;;;8.50;7.50;;;;;-143.90;50.31;74368.09;4825995;28;108036;-73
2024/03/27 03:17:50;;;;;;;;;6.50;6.00;;;;;-143.90;50.16;74357.75;4841714;28;104572;-73
2024/03/27 03:20:17;;;;;;;;;7.75;7.00;;;;;-143.90;50.39;74357.75;4820100;28;102421;-73
2024/03/27 03:22:42;;;;;;;;;6.25;6.00;;;;;-143.90;50.48;74353.63;4832417;28;102385;-73
2024/03/27 03:25:08;;;;;;;;;5.00;4.00;;;;;-143.90;50.22;74347.41;4833040;28;101960;-73
2024/03/27 03:27:34;;;;;;;;;8.50;7.00;;;;;-143.90;50.77;74351.53;4827690;28;105083;-73
2024/03/27 03:29:59;;;;;;;;;8.50;7.00;;;;;-143.90;50.88;74349.47;4826801;28;104515;-73
2024/03/27 03:32:25;;;;;;;;;7.50;7.25;;;;;-143.90;50.74;74349.47;4826785;28;105128;-73
2024/03/27 03:34:51;;;;;;;;;6.00;6.00;;;;;-143.90;50.38;74349.47;4828244;28;102564;-72
2024/03/27 03:37:17;;;;;;;;;6.00;4.00;;;;;-143.90;50.07;74337.06;4821862;28;103293;-71
2024/03/27 03:39:43;;;;;;;;;9.00;8.00;;;;;-143.90;49.90;74330.88;4831115;28;102124;-72
2024/03/27 03:42:09;;;;;;;;;5.50;5.00;;;;;-143.90;49.97;74320.53;4827079;28;101984;-73
2024/03/27 03:44:35;;;;;;;;;6.25;5.50;;;;;-143.90;49.49;74324.69;4836094;28;103172;-72
2024/03/27 03:47:00;;;;;;;;;7.00;4.50;;;;;-143.90;49.13;74316.41;4825602;28;104940;-72
2024/03/27 03:49:26;;;;;;;;;6.00;6.00;;;;;-143.90;49.14;74312.28;4827248;28;102572;-72
2024/03/27 03:51:51;;;;;;;;;7.00;6.50;;;;;-143.90;49.72;74322.59;4828666;28;102571;-72
2024/03/27 03:54:17;;;;;;;;;6.00;6.00;;;;;-143.90;49.14;74330.88;4817585;28;103611;-71
2024/03/27 03:56:43;;;;;;;;;7.50;6.00;;;;;-143.90;48.66;74324.69;4829559;28;109000;-72
2024/03/27 03:59:08;;;;;;;;;7.50;6.25;;;;;-143.90;49.46;74310.22;4829618;28;102470;-72
2024/03/27 04:01:35;;;;;;;;;7.50;6.50;;;;;-143.90;49.18;74322.59;4834407;28;102441;-72
2024/03/27 04:04:00;;;;;;;;;8.00;7.25;;;;;-143.90;48.81;74320.53;4828492;28;102514;-73
2024/03/27 04:06:27;;;;;;;;;4.00;4.00;;;;;-143.90;49.18;74322.59;4818194;28;104534;-73
2024/03/27 04:08:53;;;;;;;;;4.00;4.00;;;;;-143.90;48.84;74308.13;4846738;28;102575;-73
2024/03/27 04:11:20;;;;;;;;;3.25;3.25;;;;;-143.90;49.00;74316.41;4837277;28;103090;-72
2024/03/27 04:13:46;;;;;;;;;4.00;3.00;;;;;-143.90;49.44;74314.34;4827225;28;102887;-73
2024/03/27 04:16:11;;;;;;;;;5.50;4.50;;;;;-143.90;49.01;74312.28;4815177;28;107076;-72
2024/03/27 04:18:37;;;;;;;;;5.50;3.75;;;;;-143.90;49.85;74306.06;4810714;28;103693;-73
2024/03/27 04:21:08;;;;;;;;;6.00;4.00;;;;;-143.90;49.43;74299.88;4825777;28;106980;-73
2024/03/27 04:23:34;;;;;;;;;3.50;3.50;;;;;-143.90;48.74;74304.00;4834295;28;102328;-72
2024/03/27 04:25:59;;;;;;;;;4.50;4.50;;;;;-143.90;48.22;74308.13;4826471;28;104429;-72
2024/03/27 04:28:25;;;;;;;;;4.00;3.75;;;;;-143.90;47.85;74301.94;4816808;28;102342;-72
2024/03/27 04:30:52;;;;;;;;;5.50;4.00;;;;;-143.90;48.15;74293.66;4826020;28;102068;-72
2024/03/27 04:33:19;;;;;;;;;8.00;6.25;;;;;-143.90;47.62;74283.34;4821549;28;102281;-71
2024/03/27 04:35:46;;;;;;;;;6.50;6.00;;;;;-143.90;47.68;74287.47;4823507;28;104580;-72
2024/03/27 04:38:12;;;;;;;;;7.50;6.00;;;;;-143.90;47.54;74279.22;4836669;28;102054;-72
2024/03/27 04:40:37;;;;;;;;;7.00;6.50;;;;;-143.90;47.32;74266.81;4828713;28;102444;-73
2024/03/27 04:43:03;;;;;;;;;5.50;4.00;;;;;-143.90;47.25;74260.59;4827307;28;102623;-72
2024/03/27 04:45:30;;;;;;;;;7.75;6.00;;;;;-143.90;48.04;74273.00;4821409;28;104657;-73
2024/03/27 04:47:55;;;;;;;;;6.00;6.00;;;;;-143.90;47.51;74279.22;4828054;28;102555;-74
2024/03/27 04:50:21;;;;;;;;;5.50;4.00;;;;;-143.90;47.92;74283.34;4811572;28;102168;-73
2024/03/27 04:52:47;;;;;;;;;9.00;6.00;;;;;-143.90;48.01;74291.59;4828567;28;102822;-74
2024/03/27 04:55:13;;;;;;;;;6.50;4.00;;;;;-143.90;47.88;74287.47;4826489;28;109798;-74
2024/03/27 04:57:38;;;;;;;;;6.00;4.00;;;;;-143.90;48.05;74287.47;4828017;28;104530;-73
2024/03/27 05:00:06;;;;;;;;;6.00;6.00;;;;;-143.90;48.04;74281.28;4845039;28;105309;-74
2024/03/27 05:02:32;;;;;;;;;6.75;4.50;;;;;-143.90;47.60;74283.34;4826609;28;102473;-73
2024/03/27 05:04:57;;;;;;;;;7.00;6.00;;;;;-143.90;47.95;74291.59;4831076;28;102738;-73
2024/03/27 05:07:23;;;;;;;;;4.00;4.00;;;;;-143.90;47.91;74275.06;4828503;28;102015;-73
2024/03/27 05:09:49;;;;;;;;;3.50;3.50;;;;;-143.90;49.35;74275.06;4826085;28;103341;-73
2024/03/27 05:12:15;;;;;;;;;6.50;4.00;;;;;-143.90;48.62;74279.22;4827907;28;102133;-73
2024/03/27 05:14:41;;;;;;;;;4.00;4.00;;;;;-143.90;47.65;74270.94;4831396;28;104913;-74
2024/03/27 05:17:08;;;;;;;;;7.50;5.50;;;;;-143.90;47.65;74260.59;4829914;28;102031;-74
2024/03/27 05:19:34;;;;;;;;;6.00;6.00;;;;;-143.90;48.30;74258.53;4872087;28;102524;-73
2024/03/27 05:22:00;;;;;;;;;4.50;3.50;;;;;-143.90;48.24;74262.66;4856437;28;102491;-73
2024/03/27 05:24:26;;;;;;;;;5.00;4.00;;;;;-143.90;47.39;74254.41;4840985;28;104680;-73
2024/03/27 05:26:52;;;;;;;;;8.25;7.00;;;;;-143.90;47.13;74242.00;4851715;28;102369;-73
2024/03/27 05:29:18;;;;;;;;;4.50;3.50;;;;;-143.90;47.94;74233.72;4859773;28;102695;-73
2024/03/27 05:31:56;;;;;;;;;7.50;6.25;;;;;-143.90;47.36;74215.13;4868393;28;103730;-73
2024/03/27 05:34:22;;;;;;;;;11.75;11.75;;;;;-143.90;46.97;74204.78;4852161;28;109233;-73
2024/03/27 05:36:48;;;;;;;;;6.50;6.50;;;;;-143.90;47.86;74186.19;4841191;28;102740;-71
2024/03/27 05:39:14;;;;;;;;;6.75;6.75;;;;;-143.90;46.90;74165.53;4852679;28;102151;-73
2024/03/27 05:41:42;;;;;;;;;5.00;4.00;;;;;-143.90;46.69;74151.06;4855983;28;102567;-74
2024/03/27 05:44:08;;;;;;;;;4.00;3.25;;;;;-143.90;46.53;74130.38;4843831;28;104615;-74
2024/03/27 05:46:34;;;;;;;;;2.75;2.75;;;;;-143.90;46.32;74107.66;4846625;28;102450;-73
2024/03/27 05:49:01;;;;;;;;;2.25;2.25;;;;;-143.90;46.52;74084.91;4845707;28;102404;-73
2024/03/27 05:51:29;;;;;;;;;3.75;2.75;;;;;-143.90;45.18;74062.19;4853194;28;102118;-74
2024/03/27 05:53:55;;;;;;;;;0.75;0.50;;;;;-143.90;45.54;74035.31;4854172;28;105937;-74
2024/03/27 05:56:20;;;;;;;;;1.00;1.00;;;;;-143.90;44.92;74006.38;4843102;28;104882;-74
2024/03/27 05:58:46;;;;;;;;;1.00;1.00;;;;;-143.90;44.80;73981.56;4854368;28;102609;-74
2024/03/27 06:01:12;;;;;;;;;1.00;1.00;;;;;-143.90;44.74;73956.78;4847209;28;103171;-74
2024/03/27 06:03:38;;;;;;;;;2.00;1.00;;;;;-143.90;43.90;73936.09;4849106;28;104403;-73
2024/03/27 06:06:05;;;;;;;;;1.00;1.00;;;;;-143.90;45.69;73915.44;4850870;28;102359;-73
2024/03/27 06:08:32;;;;;;;;;2.00;2.00;;;;;-143.90;43.61;73900.97;4852504;28;101957;-72
2024/03/27 06:10:57;;;;;;;;;2.75;2.00;;;;;-143.90;43.30;73882.38;4854015;28;102288;-73
2024/03/27 06:13:23;;;;;;;;;0.00;0.00;;;;;-143.90;42.96;73857.56;4851192;28;104685;-74
2024/03/27 06:15:49;;;;;;;;;3.00;2.00;;;;;-143.90;43.75;73857.56;4853556;28;102128;-72
2024/03/27 06:18:14;;;;;;;;;3.00;3.00;;;;;-143.90;44.64;73838.97;4847504;28;102208;-72
2024/03/27 06:20:41;;;;;;;;;2.50;2.50;;;;;-143.90;43.53;73822.44;4858661;28;102328;-73
2024/03/27 06:23:06;;;;;;;;;2.25;2.25;;;;;-143.90;42.52;73818.31;4849639;28;105091;-73
2024/03/27 06:25:32;;;;;;;;;2.00;2.00;;;;;-143.90;43.51;73799.69;4847994;28;103107;-73
2024/03/27 06:27:58;;;;;;;;;2.00;1.25;;;;;-143.90;43.63;73762.50;4850128;28;102900;-73
2024/03/27 06:30:23;;;;;;;;;3.75;2.00;;;;;-143.90;42.88;73704.63;4846947;28;102710;-73
2024/03/27 06:32:49;;;;;;;;;3.00;2.00;;;;;-143.90;41.86;73661.25;4853848;28;104722;-73
2024/03/27 06:35:16;;;;;;;;;2.50;2.00;;;;;-143.90;41.47;73601.31;4863205;28;102511;-74
2024/03/27 06:37:41;;;;;;;;;3.75;3.00;;;;;-143.90;41.73;73572.38;4849245;28;102249;-74
2024/03/27 06:40:09;;;;;;;;;3.00;2.00;;;;;-143.90;41.33;73559.97;4841756;28;102673;-74
2024/03/27 06:42:36;;;;;;;;;3.25;3.25;;;;;-143.90;41.09;73547.56;4852800;28;104676;-72
2024/03/27 06:45:05;;;;;;;;;1.75;1.00;;;;;-143.90;41.11;73537.25;4855525;28;102599;-72
2024/03/27 06:47:32;;;;;;;;;2.00;2.00;;;;;-143.90;41.08;73514.50;4871520;28;102069;-73
2024/03/27 06:49:58;;;;;;;;;4.00;2.50;;;;;-143.90;40.30;73514.50;4846591;28;102835;-72
2024/03/27 06:52:24;;;;;;;;;3.00;2.00;;;;;-143.90;39.77;73518.66;4839386;28;104854;-74
2024/03/27 06:54:50;;;;;;;;;2.00;2.00;;;;;-143.90;40.91;73506.25;4852372;28;102022;-73
2024/03/27 06:57:16;;;;;;;;;5.00;3.75;;;;;-143.90;40.76;73491.78;4853260;28;103494;-73
2024/03/27 06:59:41;;;;;;;;;2.75;2.00;;;;;-143.90;40.08;73493.84;4859852;28;102159;-73
2024/03/27 07:02:07;;;;;;;;;4.00;3.00;;;;;-143.90;40.98;73483.50;4843753;28;104538;-74
2024/03/27 07:04:33;;;;;;;;;2.00;2.00;;;;;-143.90;40.49;73473.19;4859210;28;102472;-74
2024/03/27 07:06:59;;;;;;;;;2.25;2.25;;;;;-143.90;41.53;73446.31;4852848;28;102585;-74
2024/03/27 07:09:25;;;;;;;;;4.75;3.00;;;;;-143.90;40.50;73435.97;4849160;28;102533;-73
2024/03/27 07:11:51;;;;;;;;;5.00;4.00;;;;;-143.90;40.64;73446.31;4848939;28;103441;-74
2024/03/27 07:14:17;;;;;;;;;2.00;2.00;;;;;-143.90;40.73;73423.59;4837816;28;102734;-73
2024/03/27 07:16:43;;;;;;;;;5.50;3.00;;;;;-143.90;40.91;73419.44;4842334;28;104150;-73
2024/03/27 07:19:10;;;;;;;;;5.75;2.00;;;;;-143.90;41.32;73404.97;4827401;28;103564;-73
2024/03/27 07:21:36;;;;;;;;;2.00;2.00;;;;;-143.90;40.07;73396.72;4826989;28;105646;-73
2024/03/27 07:24:02;;;;;;;;;2.00;2.00;;;;;-143.90;40.78;73374.00;4829184;28;102604;-73
2024/03/27 07:26:27;;;;;;;;;2.00;2.00;;;;;-143.90;40.34;73365.72;4817364;28;102720;-73
2024/03/27 07:28:53;;;;;;;;;3.00;1.75;;;;;-143.90;41.43;73336.78;4831109;28;102870;-73
2024/03/27 07:31:19;;;;;;;;;2.00;2.00;;;;;-143.90;40.64;73336.78;4825382;28;105190;-73
2024/03/27 07:33:44;;;;;;;;;2.00;2.00;;;;;-143.90;41.04;73332.66;4826188;28;102471;-73
2024/03/27 07:36:10;;;;;;;;;2.00;2.00;;;;;-143.90;41.33;73316.13;4820893;28;102389;-73
2024/03/27 07:38:35;;;;;;;;;1.00;1.00;;;;;-143.90;41.15;73307.84;4837010;28;102059;-74
2024/03/27 07:41:01;;;;;;;;;4.00;2.00;;;;;-143.90;41.99;73295.47;4827547;28;104563;-73
2024/03/27 07:43:26;;;;;;;;;1.75;1.25;;;;;-143.90;41.60;73270.66;4801180;28;102422;-73
2024/03/27 07:45:52;;;;;;;;;2.00;2.00;;;;;-143.90;41.22;73250.00;4816894;28;102190;-74
2024/03/27 07:48:18;;;;;;;;;4.00;2.25;;;;;-143.90;41.18;73262.41;4818991;28;102491;-73
2024/03/27 07:50:44;;;;;;;;;2.50;2.00;;;;;-143.90;41.23;73243.81;4826786;28;109046;-73
2024/03/27 07:53:10;;;;;;;;;1.50;1.50;;;;;-143.90;40.53;73235.53;4827826;28;102582;-73
2024/03/27 07:55:36;;;;;;;;;2.00;2.00;;;;;-143.90;41.80;73212.81;4829783;28;102261;-73
2024/03/27 07:58:02;;;;;;;;;2.75;2.75;;;;;-143.90;41.58;73239.66;4835269;28;102389;-73
2024/03/27 08:00:28;;;;;;;;;3.75;3.25;;;;;-143.90;42.00;73225.19;4818729;28;102758;-74
2024/03/27 08:02:53;;;;;;;;;5.00;3.00;;;;;-143.90;42.89;73216.94;4829028;28;102412;-74
2024/03/27 08:05:19;;;;;;;;;5.00;4.00;;;;;-143.90;42.41;73221.06;4832886;28;103065;-72
2024/03/27 08:07:46;;;;;;;;;3.75;3.50;;;;;-143.90;43.48;73204.53;4849809;28;102477;-74
2024/03/27 08:10:13;;;;;;;;;4.00;3.25;;;;;-143.90;44.29;73208.69;4817083;28;104559;-74
2024/03/27 08:12:39;;;;;;;;;5.50;4.00;;;;;-143.90;43.99;73206.59;4826208;28;102483;-73
2024/03/27 08:15:06;;;;;;;;;3.25;3.25;;;;;-143.90;45.30;73177.69;4828674;28;104535;-73
2024/03/27 08:17:32;;;;;;;;;3.00;3.00;;;;;-143.90;45.04;73173.53;4839007;28;102500;-74
2024/03/27 08:19:58;;;;;;;;;4.00;4.00;;;;;-143.90;45.08;73154.94;4830609;28;104478;-74
2024/03/27 08:22:23;;;;;;;;;4.00;4.00;;;;;-143.90;45.33;73138.41;4821331;28;102245;-74
2024/03/27 08:24:51;;;;;;;;;4.00;3.25;;;;;-143.90;44.85;73123.94;4834839;28;104070;-74
2024/03/27 08:27:17;;;;;;;;;2.00;2.00;;;;;-143.90;46.05;73121.88;4835467;28;102345;-74
2024/03/27 08:29:42;;;;;;;;;3.75;3.25;;;;;-143.90;44.59;73134.28;4826167;28;104540;-75
2024/03/27 08:32:09;;;;;;;;;3.33;3.00;;;;;-143.90;45.40;73107.41;4826598;28;102060;-73
2024/03/27 08:34:34;;;;;;;;;2.00;2.00;;;;;-143.90;44.79;73117.75;4833835;28;107909;-74
2024/03/27 08:37:00;;;;;;;;;2.67;2.00;;;;;-143.90;45.66;73101.22;4838672;28;102045;-74
2024/03/27 08:39:26;;;;;;;;;3.00;2.00;;;;;-143.90;45.69;73080.56;4832934;28;105038;-73
2024/03/27 08:41:54;;;;;;;;;3.00;3.00;;;;;-143.90;44.94;73076.44;4832042;28;102688;-73
2024/03/27 08:44:19;;;;;;;;;2.67;2.67;;;;;-143.90;44.53;73076.44;4829010;28;102530;-73
2024/03/27 08:46:45;;;;;;;;;4.00;4.00;;;;;-143.90;43.72;73064.03;4837599;28;102796;-74
2024/03/27 08:49:13;;;;;;;;;0.00;0.00;;;;;-143.90;44.66;73061.97;4834234;28;104534;-74
2024/03/27 08:51:39;;;;;;;;;4.67;4.00;;;;;-143.90;44.48;73051.63;4851476;28;105434;-74
2024/03/27 08:54:05;;;;;;;;;3.00;2.00;;;;;-143.90;44.81;73039.22;4832314;28;102088;-74
2024/03/27 08:56:31;;;;;;;;;3.33;2.33;;;;;-143.90;44.31;73049.56;4823142;28;104580;-73
2024/03/27 08:58:56;;;;;;;;;2.00;2.00;;;;;-143.90;44.18;73026.84;4830080;28;104638;-73
2024/03/27 09:01:23;;;;;;;;;1.67;1.67;;;;;-143.90;43.93;73022.69;4831638;28;102110;-74
2024/03/27 09:03:48;;;;;;;;;5.00;4.00;;;;;-143.90;44.50;73045.44;4612599;28;5002215;-73
2024/03/27 09:06:14;;;;;;;;;3.00;3.00;;;;;-143.90;44.88;73026.84;4825135;28;102215;-74
2024/03/27 09:08:40;;;;;;;;;3.00;3.00;;;;;-143.90;45.13;73026.84;4830507;28;102611;-74
2024/03/27 09:11:09;;;;;;;;;3.00;3.00;;;;;-143.90;43.87;73028.91;4831221;28;102267;-75
2024/03/27 09:13:35;;;;;;;;;2.00;2.00;;;;;-143.90;44.78;73004.09;4819965;28;102075;-73
2024/03/27 09:16:03;;;;;;;;;4.00;3.00;;;;;-143.90;43.53;73016.50;4834451;28;102066;-72
2024/03/27 09:18:29;;;;;;;;;3.67;3.00;;;;;-143.90;43.89;73014.44;4823060;28;103602;-74
2024/03/27 09:21:00;;;;;;;;;2.00;1.00;;;;;-143.90;44.18;72997.91;4835893;28;102839;-73
2024/03/27 09:23:27;;;;;;;;;2.33;2.00;;;;;-143.90;43.95;72989.66;4835624;28;104463;-73
2024/03/27 09:25:56;;;;;;;;;2.33;2.33;;;;;-143.90;44.11;72948.31;4836464;28;102608;-73
2024/03/27 09:28:22;;;;;;;;;3.33;3.33;;;;;-143.90;43.53;72940.06;4825256;28;104467;-72
2024/03/27 09:30:48;;;;;;;;;3.00;3.00;;;;;-143.90;42.25;72923.53;4835596;28;102451;-72
2024/03/27 09:33:14;;;;;;;;;2.00;2.00;;;;;-143.90;44.16;72919.38;4835010;28;102088;-74
2024/03/27 09:35:46;;;;;;;;;3.00;2.00;;;;;-143.90;43.18;72923.53;4838453;28;102502;-73
2024/03/27 09:38:12;;;;;;;;;3.67;3.00;;;;;-143.90;42.77;72927.66;4819447;28;103510;-73
2024/03/27 09:40:54;;;;;;;;;4.00;3.00;;;;;-143.90;43.63;72923.53;4836783;28;102261;-74
2024/03/27 09:43:21;;;;;;;;;2.00;1.67;;;;;-143.90;44.08;72929.72;4830474;28;102753;-73
2024/03/27 09:45:47;;;;;;;;;2.00;2.00;;;;;-143.90;43.29;72904.94;4834862;28;103205;-73
2024/03/27 09:48:13;;;;;;;;;3.67;3.00;;;;;-143.90;42.90;72913.19;4820656;28;104705;-73
2024/03/27 09:50:39;;;;;;;;;2.00;1.67;;;;;-143.90;43.11;72902.84;4835220;28;104235;-74
2024/03/27 09:53:06;;;;;;;;;2.67;2.67;;;;;-143.90;42.37;72909.06;4830691;28;102004;-72
2024/03/27 09:55:36;;;;;;;;;2.00;2.00;;;;;-143.90;41.74;72927.66;4838843;28;102084;-73
2024/03/27 09:58:07;;;;;;;;;4.00;3.00;;;;;-143.90;42.52;72923.53;4824926;28;104574;-73
2024/03/27 10:00:34;;;;;;;;;3.67;2.67;;;;;-143.90;43.11;72917.31;4823517;28;102447;-73
2024/03/27 10:03:00;;;;;;;;;3.00;3.00;;;;;-143.90;43.43;72921.47;4827559;28;102343;-74
2024/03/27 10:05:27;;;;;;;;;4.00;2.67;;;;;-143.90;42.86;72925.59;4829929;28;102430;-73
2024/03/27 10:07:53;;;;;;;;;3.00;2.00;;;;;-143.90;42.31;72913.19;4831205;28;104642;-72
2024/03/27 10:10:19;;;;;;;;;2.33;1.67;;;;;-143.90;41.75;72900.78;4821612;28;102412;-73
2024/03/27 10:12:48;;;;;;;;;3.00;2.00;;;;;-143.90;42.91;72892.53;4828431;28;102004;-72
2024/03/27 10:15:14;;;;;;;;;2.00;2.00;;;;;-143.90;42.17;72919.38;4834001;28;102567;-73
2024/03/27 10:17:40;;;;;;;;;2.00;2.00;;;;;-143.90;42.42;72900.78;4830685;28;104886;-74
2024/03/27 10:20:06;;;;;;;;;1.67;1.67;;;;;-143.90;42.30;72896.66;4828742;28;102430;-74
2024/03/27 10:22:37;;;;;;;;;1.00;1.00;;;;;-143.90;42.44;72869.81;4833018;28;102238;-73
2024/03/27 10:25:04;;;;;;;;;2.00;2.00;;;;;-143.90;41.79;72851.22;4835516;28;102583;-74
2024/03/27 10:27:31;;;;;;;;;2.00;2.00;;;;;-143.90;41.68;72836.75;4832854;28;104642;-73
2024/03/27 10:29:57;;;;;;;;;1.67;1.67;;;;;-143.90;41.58;72826.41;4829201;28;102566;-74
2024/03/27 10:32:23;;;;;;;;;1.67;1.67;;;;;-143.90;41.70;72820.22;4821586;28;102906;-73
2024/03/27 10:34:49;;;;;;;;;1.67;1.67;;;;;-143.90;41.43;72824.34;4837108;28;102374;-72
2024/03/27 10:37:16;;;;;;;;;1.00;1.00;;;;;-143.90;41.45;72814.00;4831605;28;104666;-73
2024/03/27 10:39:47;;;;;;;;;3.00;1.00;;;;;-143.90;41.04;72818.16;4826073;28;105192;-72
2024/03/27 10:42:18;;;;;;;;;2.00;1.33;;;;;-143.90;40.73;72838.81;4821570;28;103297;-73
2024/03/27 10:44:46;;;;;;;;;2.00;1.00;;;;;-143.90;41.41;72849.13;4836474;28;102729;-72
2024/03/27 10:47:17;;;;;;;;;1.33;1.33;;;;;-143.90;41.08;72845.00;4825308;28;104706;-74
2024/03/27 10:49:44;;;;;;;;;1.00;1.00;;;;;-143.90;41.58;72847.06;4828024;28;102494;-73
2024/03/27 10:52:10;;;;;;;;;2.00;2.00;;;;;-143.90;42.11;72811.94;4824121;28;102029;-72
2024/03/27 10:54:36;;;;;;;;;2.00;2.00;;;;;-143.90;41.17;72807.81;4831528;28;102294;-73
2024/03/27 10:57:05;;;;;;;;;1.67;1.00;;;;;-143.90;40.65;72830.53;4832852;28;104487;-72
2024/03/27 10:59:34;;;;;;;;;2.00;2.00;;;;;-143.90;40.76;72828.47;4834523;28;102040;-74
2024/03/27 11:02:01;;;;;;;;;1.33;1.33;;;;;-143.90;41.55;72832.59;4839227;28;102474;-73